Time;durP1;ratioP1;P1;durP2;ratioP2;P2;SDS_P1;SDS_P2;PMS_P1;PMS_P2;Temp;Humidity;BMP_temperature;BMP_pressure;BME280_temperature;BME280_humidity;BME280_pressure;Samples;Min_cycle;Max_cycle;Signal;HPM_P1;HPM_P2
2022/01/28 00:00:06;;;;;;;8.53;4.60;;;;;;;18.52;48.33;101821.91;5033093;28;20443;-58
2022/01/28 00:02:47;;;;;;;7.80;4.43;;;;;;;18.47;47.97;101819.25;5032975;28;20475;-58
2022/01/28 00:05:18;;;;;;;8.13;4.10;;;;;;;18.46;48.24;101814.72;5032918;28;20425;-58
2022/01/28 00:07:44;;;;;;;9.27;4.43;;;;;;;18.51;48.38;101811.66;5032910;28;20426;-58
2022/01/28 00:10:09;;;;;;;6.83;3.93;;;;;;;18.50;47.83;101804.28;5033258;28;20470;-58
2022/01/28 00:12:39;;;;;;;9.23;4.70;;;;;;;18.50;48.05;101817.72;5033033;28;20173;-58
2022/01/28 00:15:13;;;;;;;7.30;4.20;;;;;;;18.47;48.02;101810.66;5033117;28;20183;-58
2022/01/28 00:39:08;;;;;;;7.47;4.27;;;;;;;18.49;47.97;101816.91;5032376;28;20427;-58
2022/01/28 00:41:34;;;;;;;6.67;3.83;;;;;;;18.43;48.29;101806.00;5032210;28;20780;-59
2022/01/28 00:43:59;;;;;;;11.30;4.27;;;;;;;18.53;48.03;101823.63;5032751;28;20547;-61
2022/01/28 00:46:24;;;;;;;7.13;3.83;;;;;;;18.45;48.29;101830.19;5032561;28;20176;-58
2022/01/28 00:48:50;;;;;;;6.43;3.60;;;;;;;18.44;48.26;101828.53;5032296;28;20196;-58
2022/01/28 00:51:15;;;;;;;6.30;3.70;;;;;;;18.46;48.42;101814.72;5031990;28;20191;-58
2022/01/28 00:53:41;;;;;;;6.90;3.73;;;;;;;18.45;48.15;101809.34;5032464;28;20172;-58
2022/01/28 00:56:06;;;;;;;8.27;3.90;;;;;;;18.46;48.05;101814.72;5032602;28;20548;-58
2022/01/28 00:58:32;;;;;;;8.80;3.87;;;;;;;18.43;48.08;101809.69;5032429;28;20184;-58
2022/01/28 01:00:57;;;;;;;6.97;4.47;;;;;;;18.48;48.21;101812.38;5031540;28;20676;-57
2022/01/28 01:03:23;;;;;;;9.33;4.17;;;;;;;18.47;48.26;101809.84;5031955;28;20259;-59
2022/01/28 01:05:48;;;;;;;13.73;3.80;;;;;;;18.50;48.58;101818.56;5031797;28;20204;-59
2022/01/28 01:08:14;;;;;;;7.60;4.10;;;;;;;18.50;48.50;101821.44;5031740;28;20637;-59
2022/01/28 01:10:39;;;;;;;7.63;3.80;;;;;;;18.48;48.14;101832.38;5031889;28;20557;-59
2022/01/28 01:13:05;;;;;;;7.10;4.17;;;;;;;18.44;48.51;101834.25;5031887;28;20172;-58
2022/01/28 01:15:35;;;;;;;9.07;4.03;;;;;;;18.44;48.39;101850.56;5031381;28;20180;-59
2022/01/28 01:18:16;;;;;;;5.93;4.00;;;;;;;18.46;48.30;101851.88;5032093;28;20707;-58
2022/01/28 01:23:13;;;;;;;7.57;4.03;;;;;;;18.46;48.08;101842.50;5032156;28;20432;-59
2022/01/28 01:25:51;;;;;;;6.77;3.90;;;;;;;18.43;48.29;101844.00;5032298;28;20831;-58
2022/01/28 01:28:19;;;;;;;5.37;3.53;;;;;;;18.47;48.01;101844.16;5032118;28;20898;-58
2022/01/28 01:30:45;;;;;;;8.17;4.40;;;;;;;18.47;48.08;101849.88;5030759;28;20461;-58
2022/01/28 01:33:11;;;;;;;7.60;3.80;;;;;;;18.41;48.63;101857.78;5030945;28;20500;-58
2022/01/28 01:35:38;;;;;;;6.50;3.77;;;;;;;18.43;48.34;101861.16;5031799;28;20407;-58
2022/01/28 01:38:05;;;;;;;6.70;4.07;;;;;;;18.41;49.04;101869.22;5031510;28;20176;-58
2022/01/28 01:40:36;;;;;;;9.33;4.13;;;;;;;18.39;48.37;101863.03;5030938;28;20513;-58
2022/01/28 01:43:11;;;;;;;6.93;3.77;;;;;;;18.39;48.37;101865.91;5030649;28;20452;-58
2022/01/28 01:46:00;;;;;;;9.10;4.17;;;;;;;18.40;48.60;101870.44;5031268;28;20399;-58
2022/01/28 01:54:02;;;;;;;6.80;3.00;;;;;;;18.44;48.27;101874.28;5030799;28;20398;-58
2022/01/28 01:56:28;;;;;;;6.20;3.57;;;;;;;18.40;49.01;101873.28;5030311;28;20782;-58
2022/01/28 01:58:53;;;;;;;6.43;3.90;;;;;;;18.39;48.32;101885.91;5030811;28;20177;-58
2022/01/28 02:01:19;;;;;;;4.63;3.23;;;;;;;18.43;48.61;101901.22;5030805;28;20276;-58
2022/01/28 02:03:44;;;;;;;6.80;3.67;;;;;;;18.40;48.52;101896.16;5031213;28;20188;-59
2022/01/28 02:06:10;;;;;;;5.17;3.07;;;;;;;18.39;48.35;101885.91;5031493;28;20567;-58
2022/01/28 02:08:35;;;;;;;5.37;3.10;;;;;;;18.45;48.06;101895.97;5030703;28;20597;-58
2022/01/28 02:11:01;;;;;;;5.13;3.30;;;;;;;18.40;48.34;101887.59;5030556;28;20173;-58
2022/01/28 02:13:30;;;;;;;6.00;3.67;;;;;;;18.42;48.56;101888.06;5030874;28;20214;-59
2022/01/28 02:15:56;;;;;;;9.30;3.53;;;;;;;18.39;48.68;101896.50;5030564;28;20184;-58
2022/01/28 02:18:22;;;;;;;4.87;3.10;;;;;;;18.40;48.85;101901.03;5030839;28;20560;-58
2022/01/28 02:20:50;;;;;;;9.13;3.63;;;;;;;18.40;48.58;101898.16;5030749;28;20903;-59
2022/01/28 02:23:16;;;;;;;7.30;3.50;;;;;;;18.41;48.58;101903.56;5029833;28;20835;-58
2022/01/28 02:25:42;;;;;;;4.57;3.27;;;;;;;18.39;48.74;101896.50;5031116;28;20419;-59
2022/01/28 02:28:11;;;;;;;4.80;3.10;;;;;;;18.44;48.28;101902.88;5029823;28;20607;-58
2022/01/28 02:30:36;;;;;;;5.90;3.30;;;;;;;18.39;48.63;101899.34;5030262;28;20454;-59
2022/01/28 02:33:11;;;;;;;9.63;3.37;;;;;;;18.39;48.64;101905.94;5030585;28;20927;-58
2022/01/28 02:35:38;;;;;;;6.10;3.50;;;;;;;18.35;48.70;101906.94;5029895;28;20195;-59
2022/01/28 02:38:03;;;;;;;6.03;3.90;;;;;;;18.34;48.69;101910.97;5029924;28;20391;-57
2022/01/28 02:40:29;;;;;;;5.80;3.20;;;;;;;18.36;48.35;101908.63;5030234;28;20427;-58
2022/01/28 02:45:34;;;;;;;6.70;3.90;;;;;;;18.34;48.91;101908.13;5030932;28;20226;-58
2022/01/28 02:48:07;;;;;;;4.77;2.97;;;;;;;18.36;48.39;101920.06;5029354;28;20160;-58
2022/01/28 02:50:42;;;;;;;6.27;3.50;;;;;;;18.33;48.87;101915.88;5010436;28;20455;-59
2022/01/28 02:53:09;;;;;;;7.20;3.40;;;;;;;18.39;48.86;101908.78;5010778;28;20998;-58
2022/01/28 02:55:39;;;;;;;4.90;2.80;;;;;;;18.33;48.71;101900.72;5010791;28;20462;-58
2022/01/28 02:58:17;;;;;;;4.63;3.20;;;;;;;18.36;48.48;101900.88;5010160;28;20427;-58
2022/01/28 03:00:43;;;;;;;5.90;3.30;;;;;;;18.38;48.55;101897.69;5009352;28;20479;-58
2022/01/28 03:03:09;;;;;;;6.23;3.20;;;;;;;18.33;48.51;101897.88;5015650;28;20562;-58
2022/01/28 03:05:34;;;;;;;5.23;3.33;;;;;;;18.26;48.59;101901.22;5030035;28;20266;-59
2022/01/28 03:08:03;;;;;;;4.90;3.40;;;;;;;18.31;48.73;101892.44;5030205;28;20637;-58
2022/01/28 03:10:42;;;;;;;4.77;3.10;;;;;;;18.33;48.42;101900.72;5029354;28;20282;-58
2022/01/28 03:15:34;;;;;;;5.90;3.40;;;;;;;18.37;48.48;101907.44;5030515;28;20518;-59
2022/01/28 03:23:17;;;;;;;5.23;3.47;;;;;;;18.35;48.60;101907.78;5030027;28;20915;-58
2022/01/28 03:25:44;;;;;;;5.90;3.17;;;;;;;18.38;48.41;101915.69;5030595;28;20483;-58
2022/01/28 03:28:10;;;;;;;4.00;2.80;;;;;;;18.34;48.75;101910.97;5029587;28;20667;-58
2022/01/28 03:30:35;;;;;;;5.30;3.47;;;;;;;18.34;48.53;101916.69;5029233;28;20458;-58
2022/01/28 03:33:01;;;;;;;5.40;2.70;;;;;;;18.34;48.32;101920.41;5029578;28;20184;-58
2022/01/28 03:35:26;;;;;;;4.93;3.23;;;;;;;18.34;48.61;101914.69;5029759;28;20183;-58
2022/01/28 03:37:59;;;;;;;4.73;2.97;;;;;;;18.32;48.74;101921.88;5029495;28;20183;-58
2022/01/28 03:40:24;;;;;;;5.83;3.70;;;;;;;18.34;48.47;101926.13;5028857;28;20188;-58
2022/01/28 03:42:50;;;;;;;3.70;2.50;;;;;;;18.33;48.46;101933.03;5029876;28;20430;-59
2022/01/28 03:45:15;;;;;;;4.07;2.83;;;;;;;18.29;48.44;101946.28;5029525;28;20195;-60
2022/01/28 03:47:41;;;;;;;4.03;3.17;;;;;;;18.33;48.57;101946.47;5029897;28;20510;-58
2022/01/28 03:50:07;;;;;;;6.50;3.90;;;;;;;18.31;48.40;101943.09;5029046;28;20311;-58
2022/01/28 03:52:32;;;;;;;4.27;2.80;;;;;;;18.28;48.83;101953.19;5029788;28;20266;-58
2022/01/28 03:54:57;;;;;;;4.70;2.50;;;;;;;18.30;48.42;101958.53;5029484;28;20423;-58
2022/01/28 03:57:23;;;;;;;5.73;2.77;;;;;;;18.37;48.10;101956.06;5029143;28;20173;-57
2022/01/28 03:59:48;;;;;;;4.23;3.03;;;;;;;18.35;48.44;101956.38;5029104;28;20176;-58
2022/01/28 04:02:21;;;;;;;5.40;3.10;;;;;;;18.35;48.20;101966.97;5028404;28;20270;-58
2022/01/28 04:12:50;;;;;;;4.07;2.57;;;;;;;18.32;48.31;101979.94;5030830;28;20823;-58
2022/01/28 04:17:43;;;;;;;3.50;2.50;;;;;;;18.33;48.56;101981.63;5032661;28;20200;-58
2022/01/28 04:20:09;;;;;;;3.80;2.63;;;;;;;18.36;48.20;101995.22;5031124;28;20419;-59
2022/01/28 04:22:34;;;;;;;4.10;2.30;;;;;;;18.36;48.88;102003.81;5032528;28;20177;-59
2022/01/28 04:25:00;;;;;;;4.33;2.93;;;;;;;18.34;48.60;102005.34;5032847;28;20180;-58
2022/01/28 04:27:25;;;;;;;4.70;3.23;;;;;;;18.34;48.61;102000.47;5032322;28;20528;-58
2022/01/28 04:29:52;;;;;;;4.73;3.17;;;;;;;18.33;48.51;102000.78;5032461;28;20196;-58
2022/01/28 04:32:18;;;;;;;4.07;2.87;;;;;;;18.35;48.65;102016.44;5032894;28;20181;-58
2022/01/28 04:34:44;;;;;;;5.03;3.10;;;;;;;18.34;48.60;102016.78;5032426;28;20440;-58
2022/01/28 04:50:16;;;;;;;5.40;3.00;;;;;;;18.38;48.37;102023.50;5031085;28;20463;-59
2022/01/28 05:11:38;;;;;;;4.60;2.80;;;;;;;18.33;48.51;102015.94;5031575;28;20500;-58
2022/01/28 05:14:28;;;;;;;3.50;2.60;;;;;;;18.32;48.46;102014.25;5032182;28;21028;-58
2022/01/28 05:27:46;;;;;;;4.30;2.60;;;;;;;18.34;48.52;102009.03;5032063;28;20505;-58
2022/01/28 05:30:11;;;;;;;4.90;2.70;;;;;;;18.31;48.60;102000.28;5031296;28;20460;-59
2022/01/28 05:32:37;;;;;;;3.97;2.53;;;;;;;18.39;48.05;101991.72;5031317;28;20474;-58
2022/01/28 05:35:03;;;;;;;3.57;2.23;;;;;;;18.38;48.44;102003.47;5030635;28;20208;-59
2022/01/28 05:37:28;;;;;;;4.03;2.27;;;;;;;18.35;48.55;102005.00;5031585;28;20189;-59
2022/01/28 05:39:54;;;;;;;5.10;2.70;;;;;;;18.41;48.13;102009.34;5031381;28;20427;-58
2022/01/28 05:42:19;;;;;;;3.83;2.77;;;;;;;18.37;48.46;102008.34;5031613;28;20199;-58
2022/01/28 05:44:45;;;;;;;4.63;2.50;;;;;;;18.37;48.66;102025.50;5031782;28;20617;-58
2022/01/28 05:47:14;;;;;;;4.13;2.70;;;;;;;18.35;47.94;102013.56;5031629;28;20173;-58
2022/01/28 05:49:41;;;;;;;4.63;2.63;;;;;;;18.36;48.35;102023.81;5031103;28;20240;-58
2022/01/28 05:52:07;;;;;;;4.43;2.50;;;;;;;18.37;48.48;102034.06;5029919;28;20791;-58
2022/01/28 05:54:32;;;;;;;5.47;2.40;;;;;;;18.40;48.26;102042.00;5031243;28;20439;-59
2022/01/28 05:56:57;;;;;;;5.23;2.97;;;;;;;18.37;48.39;102042.66;5030862;28;20192;-58
2022/01/28 05:59:23;;;;;;;3.60;2.10;;;;;;;18.46;47.86;102043.50;5031131;28;20519;-58
2022/01/28 06:01:48;;;;;;;3.83;2.33;;;;;;;18.43;47.96;102049.06;5030439;28;20228;-58
2022/01/28 06:04:17;;;;;;;3.80;2.40;;;;;;;18.38;48.05;102064.38;5030723;28;20184;-58
2022/01/28 06:06:43;;;;;;;3.93;2.57;;;;;;;18.39;48.34;102074.63;5030898;28;20697;-58
2022/01/28 06:09:08;;;;;;;3.50;2.30;;;;;;;18.37;48.69;102073.28;5031048;28;20466;-58
2022/01/28 06:11:34;;;;;;;3.63;2.70;;;;;;;18.36;48.44;102074.47;5030630;28;20177;-58
2022/01/28 06:13:59;;;;;;;3.63;2.10;;;;;;;18.38;48.59;102087.25;5030805;28;20613;-58
2022/01/28 06:16:25;;;;;;;3.80;2.60;;;;;;;18.38;48.51;102098.69;5030851;28;20176;-59
2022/01/28 06:18:50;;;;;;;3.23;2.07;;;;;;;18.42;48.21;102111.13;5030715;28;20256;-61
2022/01/28 06:21:16;;;;;;;4.10;2.30;;;;;;;18.46;48.16;102099.88;5030142;28;20586;-58
2022/01/28 06:23:41;;;;;;;4.47;2.73;;;;;;;18.40;48.11;102099.19;5030965;28;20586;-57
2022/01/28 06:26:07;;;;;;;3.77;2.30;;;;;;;18.42;48.33;102096.00;5030956;28;20652;-58
2022/01/28 06:28:32;;;;;;;3.63;2.33;;;;;;;18.38;48.25;102115.00;5030802;28;20168;-58
2022/01/28 06:30:58;;;;;;;4.13;2.43;;;;;;;18.39;48.30;102114.66;5029083;28;20219;-58
2022/01/28 06:33:24;;;;;;;4.03;2.30;;;;;;;18.40;48.28;102113.50;5028641;28;20204;-58
2022/01/28 06:35:49;;;;;;;4.07;2.60;;;;;;;18.40;48.42;102110.63;5029643;28;20542;-58
2022/01/28 06:38:15;;;;;;;4.83;2.50;;;;;;;18.40;48.19;102106.91;5030649;28;20667;-58
2022/01/28 06:40:40;;;;;;;4.80;2.43;;;;;;;18.38;48.29;102103.56;5029947;28;20722;-58
2022/01/28 06:43:09;;;;;;;3.33;2.20;;;;;;;18.38;48.26;102098.69;5029973;28;20193;-58
2022/01/28 06:45:35;;;;;;;3.50;2.30;;;;;;;18.41;48.32;102095.16;5029784;28;20232;-58
2022/01/28 06:48:01;;;;;;;3.80;2.50;;;;;;;18.36;48.40;102089.59;5030436;28;20915;-59
2022/01/28 06:50:26;;;;;;;5.83;2.33;;;;;;;18.41;48.46;102086.56;5028531;28;20680;-58
2022/01/28 06:52:51;;;;;;;4.93;2.70;;;;;;;18.41;48.16;102098.00;5030407;28;20176;-58
2022/01/28 06:55:17;;;;;;;3.50;2.37;;;;;;;18.42;47.90;102108.25;5030017;28;20172;-58
2022/01/28 06:57:42;;;;;;;4.37;2.77;;;;;;;18.44;48.13;102114.50;5030379;28;20176;-58
2022/01/28 07:00:09;;;;;;;3.53;2.17;;;;;;;18.40;48.33;102104.06;5029825;28;20172;-58
2022/01/28 07:02:34;;;;;;;4.20;2.40;;;;;;;18.41;48.48;102115.16;5029956;28;20229;-58
2022/01/28 07:05:00;;;;;;;3.67;2.37;;;;;;;18.43;48.19;102103.38;5030245;28;20407;-58
2022/01/28 07:07:26;;;;;;;4.00;2.33;;;;;;;18.41;48.13;102106.59;5030198;28;20196;-58
2022/01/28 07:09:52;;;;;;;5.30;2.80;;;;;;;18.42;48.31;102099.69;5029408;28;20206;-58
2022/01/28 07:12:17;;;;;;;3.37;1.80;;;;;;;18.46;48.03;102094.97;5029662;28;20427;-58
2022/01/28 07:14:43;;;;;;;4.17;2.30;;;;;;;18.45;47.95;102109.59;5029468;28;20664;-58
2022/01/28 07:17:08;;;;;;;2.67;1.73;;;;;;;18.44;48.21;102119.38;5029630;28;20179;-58
2022/01/28 07:19:34;;;;;;;3.37;2.20;;;;;;;18.47;47.96;102119.53;5029443;28;20541;-58
2022/01/28 07:21:59;;;;;;;3.40;2.27;;;;;;;18.46;48.48;102115.00;5029926;28;20176;-58
2022/01/28 07:24:25;;;;;;;3.73;2.23;;;;;;;18.45;48.46;102121.03;5030025;28;20161;-58
2022/01/28 07:26:51;;;;;;;3.70;2.30;;;;;;;18.43;48.01;102134.84;5029958;28;20636;-58
2022/01/28 07:29:17;;;;;;;3.27;2.07;;;;;;;18.45;48.20;102143.91;5029153;28;20204;-58
2022/01/28 07:31:43;;;;;;;4.33;2.33;;;;;;;18.44;48.71;102145.97;5029435;28;20423;-58
2022/01/28 07:34:08;;;;;;;3.40;2.13;;;;;;;18.41;48.72;102148.66;5029635;28;20195;-58
2022/01/28 07:36:34;;;;;;;4.40;2.70;;;;;;;18.40;48.22;102156.38;5029911;28;20199;-58
2022/01/28 07:39:00;;;;;;;2.80;2.17;;;;;;;18.47;48.25;102144.44;5029221;28;20204;-58
2022/01/28 07:41:26;;;;;;;3.30;2.13;;;;;;;18.44;48.31;102153.69;5029659;28;20441;-58
2022/01/28 07:43:52;;;;;;;3.57;2.10;;;;;;;18.41;48.48;102165.81;5029408;28;20184;-58
2022/01/28 07:46:18;;;;;;;2.63;1.90;;;;;;;18.46;48.24;102172.19;5030128;28;20502;-58
2022/01/28 07:48:43;;;;;;;3.20;2.20;;;;;;;18.45;47.99;102172.53;5033428;28;20172;-58
2022/01/28 07:51:08;;;;;;;3.47;2.00;;;;;;;18.51;47.92;102172.03;5033548;28;20169;-58
2022/01/28 07:53:34;;;;;;;3.33;2.20;;;;;;;18.47;48.13;102173.03;5033652;28;20184;-58
2022/01/28 07:55:59;;;;;;;3.07;2.20;;;;;;;18.50;47.84;102170.34;5033365;28;20172;-57
2022/01/28 07:58:25;;;;;;;2.90;2.07;;;;;;;18.48;48.12;102180.44;5033600;28;20551;-60
2022/01/28 08:00:50;;;;;;;2.93;1.90;;;;;;;18.48;48.02;102187.03;5032342;28;20175;-58
2022/01/28 08:03:15;;;;;;;3.63;2.13;;;;;;;18.46;48.45;102195.06;5033163;28;20243;-58
2022/01/28 08:05:41;;;;;;;4.40;2.30;;;;;;;18.41;48.26;102200.94;5033932;28;20204;-58
2022/01/28 08:08:08;;;;;;;3.20;2.07;;;;;;;18.48;47.89;102195.59;5032967;28;20176;-58
2022/01/28 08:10:34;;;;;;;3.17;2.10;;;;;;;18.44;48.45;102203.16;5032820;28;20204;-58
2022/01/28 08:13:02;;;;;;;3.40;2.07;;;;;;;18.47;48.29;102204.50;5033219;28;20921;-58
2022/01/28 08:15:27;;;;;;;3.23;2.13;;;;;;;18.46;48.09;102214.28;5033402;28;20543;-58
2022/01/28 08:17:53;;;;;;;3.93;2.30;;;;;;;18.52;47.91;102228.06;5032696;28;20419;-58
2022/01/28 08:20:18;;;;;;;3.03;2.20;;;;;;;18.44;48.55;102223.19;5032713;28;20172;-58
2022/01/28 08:22:47;;;;;;;3.47;2.10;;;;;;;18.45;48.54;102226.84;5032451;28;20230;-58
2022/01/28 08:25:13;;;;;;;3.53;2.27;;;;;;;18.47;48.32;102231.06;5032847;28;20176;-58
2022/01/28 08:27:41;;;;;;;3.20;2.10;;;;;;;18.51;48.23;102242.72;5033217;28;20427;-58
2022/01/28 08:30:07;;;;;;;3.93;2.50;;;;;;;18.47;48.18;102245.38;5032286;28;20540;-58
2022/01/28 08:32:33;;;;;;;4.00;2.30;;;;;;;18.47;47.94;102248.22;5032625;28;20833;-58
2022/01/28 08:34:58;;;;;;;3.40;2.00;;;;;;;18.51;48.16;102246.41;5032697;28;20411;-58
2022/01/28 08:37:23;;;;;;;3.83;2.33;;;;;;;18.50;47.87;102255.31;5032231;28;20209;-58
2022/01/28 08:39:49;;;;;;;4.03;2.33;;;;;;;18.51;48.61;102266.41;5032345;28;20227;-58
2022/01/28 08:42:16;;;;;;;4.07;2.60;;;;;;;18.46;48.32;102266.56;5032786;28;20189;-58
2022/01/28 08:44:42;;;;;;;3.10;2.20;;;;;;;18.43;48.29;102266.41;5033267;28;20173;-58
2022/01/28 08:47:07;;;;;;;3.03;2.03;;;;;;;18.45;48.66;102264.03;5032013;28;20895;-58
2022/01/28 08:49:33;;;;;;;3.30;2.00;;;;;;;18.50;48.38;102270.47;5032433;28;20659;-59
2022/01/28 08:51:59;;;;;;;3.77;2.23;;;;;;;18.45;48.35;102272.63;5032340;28;20405;-58
2022/01/28 08:54:24;;;;;;;4.50;2.20;;;;;;;18.46;48.38;102275.16;5032596;28;20640;-58
2022/01/28 08:56:50;;;;;;;3.10;2.00;;;;;;;18.45;48.37;102284.91;5032165;28;20427;-58
2022/01/28 08:59:15;;;;;;;4.17;2.20;;;;;;;18.45;48.21;102281.19;5031424;28;20173;-58
2022/01/28 09:01:40;;;;;;;3.33;2.30;;;;;;;18.47;48.26;102291.13;5032385;28;20247;-58
2022/01/28 09:04:06;;;;;;;2.80;2.00;;;;;;;18.49;47.95;102288.81;5032064;28;20636;-58
2022/01/28 09:06:31;;;;;;;3.70;2.17;;;;;;;18.53;48.02;102289.81;5032162;28;20197;-58
2022/01/28 09:09:00;;;;;;;3.07;2.10;;;;;;;18.47;48.55;102276.84;5030817;28;20172;-58
2022/01/28 09:13:52;;;;;;;5.73;2.10;;;;;;;18.45;48.31;102270.63;5032333;28;20391;-57
2022/01/28 09:16:18;;;;;;;2.90;1.90;;;;;;;18.49;48.42;102260.19;5031554;28;20172;-59
2022/01/28 09:18:43;;;;;;;2.70;1.97;;;;;;;18.45;48.19;102256.31;5032055;28;20477;-58
2022/01/28 09:21:09;;;;;;;2.57;1.97;;;;;;;18.48;47.93;102257.66;5031659;28;20168;-58
2022/01/28 09:23:34;;;;;;;3.00;2.00;;;;;;;18.49;48.22;102259.34;5031633;28;20157;-58
2022/01/28 09:25:59;;;;;;;2.97;2.00;;;;;;;18.50;48.03;102270.47;5031865;28;20191;-58
2022/01/28 09:28:25;;;;;;;3.63;1.90;;;;;;;18.51;47.84;102263.56;5031987;28;20651;-58
2022/01/28 09:30:51;;;;;;;3.17;1.80;;;;;;;18.52;47.95;102255.84;5030909;28;20201;-58
2022/01/28 09:33:17;;;;;;;2.70;2.03;;;;;;;18.48;48.02;102269.97;5031656;28;20189;-58
2022/01/28 09:35:42;;;;;;;2.70;2.00;;;;;;;18.53;48.05;102252.63;5031200;28;20949;-57
2022/01/28 09:38:08;;;;;;;2.97;1.87;;;;;;;18.53;47.82;102257.50;5030380;28;20686;-58
2022/01/28 09:40:33;;;;;;;2.93;2.10;;;;;;;18.57;47.84;102245.06;5031459;28;20164;-59
2022/01/28 09:43:00;;;;;;;3.47;2.03;;;;;;;18.52;48.13;102259.50;5031264;28;20204;-58
2022/01/28 09:45:26;;;;;;;2.97;1.90;;;;;;;18.53;48.01;102271.81;5031194;28;20202;-58
2022/01/28 09:47:53;;;;;;;3.30;2.10;;;;;;;18.54;48.02;102274.34;5029928;28;20918;-58
2022/01/28 09:50:21;;;;;;;2.97;2.13;;;;;;;18.54;48.44;102277.22;5030409;28;20664;-58
2022/01/28 09:52:47;;;;;;;4.20;2.40;;;;;;;18.56;48.18;102283.41;5030812;28;20430;-58
2022/01/28 09:55:12;;;;;;;3.13;2.00;;;;;;;18.53;47.82;102289.81;5031558;28;20471;-58
2022/01/28 09:57:38;;;;;;;4.00;1.87;;;;;;;18.48;48.10;102297.72;5030316;28;20513;-58
2022/01/28 10:00:05;;;;;;;2.67;2.03;;;;;;;18.55;47.90;102290.31;5030807;28;20247;-58
2022/01/28 10:02:49;;;;;;;3.00;2.10;;;;;;;18.56;48.27;102294.88;5030914;28;20224;-58
2022/01/28 10:05:17;;;;;;;2.80;2.07;;;;;;;18.59;47.74;102287.63;5031291;28;20415;-58
2022/01/28 10:08:08;;;;;;;2.97;1.90;;;;;;;18.57;47.90;102293.69;5031139;28;20415;-58
2022/01/28 10:10:47;;;;;;;3.20;1.80;;;;;;;18.58;48.31;102295.38;5030540;28;20505;-58
2022/01/28 10:13:41;;;;;;;2.90;1.80;;;;;;;18.61;47.96;102286.13;5030707;28;20431;-58
2022/01/28 10:16:09;;;;;;;2.67;1.70;;;;;;;18.55;48.41;102290.31;5031586;28;20752;-58
2022/01/28 10:18:39;;;;;;;4.00;2.10;;;;;;;18.61;47.95;102291.84;5030901;28;20434;-58
2022/01/28 10:21:25;;;;;;;4.17;2.50;;;;;;;18.56;47.85;102289.16;5030727;28;20439;-58
2022/01/28 10:24:14;;;;;;;2.50;1.50;;;;;;;18.59;48.02;102296.22;5023299;28;20739;-58
2022/01/28 10:26:52;;;;;;;4.03;2.13;;;;;;;18.57;48.08;102290.81;5031006;28;20411;-58
2022/01/28 10:29:19;;;;;;;2.60;2.00;;;;;;;18.60;47.75;102290.16;5030266;28;21027;-58
2022/01/28 10:31:56;;;;;;;2.87;2.03;;;;;;;18.64;47.89;102284.63;5030364;28;20427;-58
2022/01/28 10:34:35;;;;;;;3.20;2.17;;;;;;;18.57;47.84;102290.81;5029264;28;20435;-58
2022/01/28 10:37:10;;;;;;;2.80;1.90;;;;;;;18.63;47.91;102280.94;5029734;28;20423;-58
2022/01/28 10:40:00;;;;;;;3.03;2.00;;;;;;;18.56;48.29;102288.31;5030039;28;20444;-58
2022/01/28 10:42:25;;;;;;;2.77;1.90;;;;;;;18.62;48.06;102286.97;5029425;28;20409;-60
2022/01/28 10:45:02;;;;;;;2.80;1.70;;;;;;;18.62;47.93;102287.81;5030134;28;20437;-58
2022/01/28 10:47:32;;;;;;;3.03;2.03;;;;;;;18.61;48.04;102280.41;5030568;28;20165;-58
2022/01/28 10:49:57;;;;;;;3.57;2.27;;;;;;;18.61;47.84;102291.84;5029849;28;20963;-58
2022/01/28 10:52:33;;;;;;;3.17;2.20;;;;;;;18.63;47.92;102280.94;5030314;28;20430;-58
2022/01/28 10:54:58;;;;;;;4.20;1.97;;;;;;;18.54;48.63;102291.50;5029835;28;20237;-58
2022/01/28 10:57:24;;;;;;;2.53;1.67;;;;;;;18.59;48.08;102290.50;5030246;28;20511;-58
2022/01/28 10:59:49;;;;;;;3.80;2.17;;;;;;;18.67;48.04;102286.81;5029663;28;20176;-58
2022/01/28 11:02:15;;;;;;;2.60;2.00;;;;;;;18.60;47.95;102295.03;5028926;28;20220;-58
2022/01/28 11:04:40;;;;;;;2.80;2.10;;;;;;;18.61;48.06;102288.97;5028393;28;20184;-58
2022/01/28 11:07:06;;;;;;;3.13;2.20;;;;;;;18.59;48.21;102282.78;5028998;28;20204;-58
2022/01/28 11:09:31;;;;;;;3.40;2.20;;;;;;;18.63;47.83;102292.38;5029310;28;20196;-58
2022/01/28 11:11:57;;;;;;;2.90;1.83;;;;;;;18.61;48.01;102291.03;5030402;28;20184;-58
2022/01/28 11:14:22;;;;;;;2.50;1.90;;;;;;;18.61;47.92;102286.13;5030277;28;20639;-58
2022/01/28 11:16:48;;;;;;;3.17;2.00;;;;;;;18.58;48.29;102281.09;5030236;28;20210;-58
2022/01/28 11:19:15;;;;;;;3.10;2.10;;;;;;;18.61;47.86;102274.69;5029253;28;20575;-58
2022/01/28 11:21:47;;;;;;;2.73;1.93;;;;;;;18.64;47.92;102278.88;5027649;28;20272;-58
2022/01/28 11:24:27;;;;;;;3.57;1.80;;;;;;;18.62;47.99;102281.25;5028117;28;20435;-58
2022/01/28 11:26:58;;;;;;;6.90;2.57;;;;;;;18.65;48.38;102274.84;5028292;28;20405;-58
2022/01/28 11:29:27;;;;;;;2.97;1.80;;;;;;;18.66;47.95;102274.53;5027869;28;20454;-58
2022/01/28 11:31:58;;;;;;;3.20;2.57;;;;;;;18.65;48.05;102281.44;5029704;28;20426;-58
2022/01/28 11:34:28;;;;;;;3.10;2.10;;;;;;;18.60;47.94;102278.72;5028483;28;20488;-58
2022/01/28 11:37:34;;;;;;;2.70;1.70;;;;;;;18.61;47.99;102280.41;5030067;28;20473;-58
2022/01/28 11:40:06;;;;;;;3.87;2.27;;;;;;;18.62;48.15;102275.53;5028911;28;20501;-58
2022/01/28 11:42:32;;;;;;;3.00;2.10;;;;;;;18.57;48.43;102282.25;5027355;28;20463;-58
2022/01/28 11:44:59;;;;;;;2.60;1.70;;;;;;;18.63;48.10;102280.06;5029641;28;20465;-59
2022/01/28 11:47:35;;;;;;;2.87;1.93;;;;;;;18.58;48.11;102275.38;5030039;28;20659;-58
2022/01/28 11:50:16;;;;;;;2.83;1.80;;;;;;;18.57;48.18;102267.13;5029707;28;20450;-58
2022/01/28 11:52:47;;;;;;;3.10;1.93;;;;;;;18.57;48.27;102279.38;5029924;28;20441;-58
2022/01/28 11:55:16;;;;;;;3.60;1.87;;;;;;;18.64;48.03;102276.88;5028995;28;20407;-58
2022/01/28 11:57:57;;;;;;;2.90;2.00;;;;;;;18.60;48.34;102275.88;5030101;28;20419;-58
2022/01/28 12:00:23;;;;;;;3.60;2.30;;;;;;;18.60;48.01;102269.28;5029021;28;20477;-58
2022/01/28 12:02:50;;;;;;;3.27;2.13;;;;;;;18.62;48.10;102272.69;5029092;28;20478;-58
2022/01/28 12:05:30;;;;;;;4.13;1.90;;;;;;;18.56;48.20;102269.13;5029591;28;20430;-58
2022/01/28 12:08:04;;;;;;;3.50;2.00;;;;;;;18.58;48.23;102275.38;5028875;28;20435;-58
2022/01/28 12:10:31;;;;;;;2.93;1.70;;;;;;;18.60;47.23;102270.13;5011517;28;20462;-58
2022/01/28 12:13:01;;;;;;;2.50;1.73;;;;;;;18.59;48.31;102267.59;5028091;28;20427;-58
2022/01/28 12:15:31;;;;;;;2.80;1.80;;;;;;;18.57;48.19;102267.94;5029581;28;20422;-59
2022/01/28 12:18:10;;;;;;;3.17;1.90;;;;;;;18.63;48.31;102263.75;5029949;28;20431;-58
2022/01/28 12:20:42;;;;;;;3.40;2.20;;;;;;;18.67;47.76;102269.66;5029416;28;20469;-58
2022/01/28 12:23:10;;;;;;;2.80;2.10;;;;;;;18.64;48.22;102273.16;5029187;28;20440;-58
2022/01/28 12:25:35;;;;;;;2.73;1.67;;;;;;;18.58;48.17;102263.94;5028840;28;20462;-58
2022/01/28 12:28:13;;;;;;;3.00;1.80;;;;;;;18.64;48.18;102262.59;5029117;28;20470;-58
2022/01/28 12:30:39;;;;;;;3.27;1.80;;;;;;;18.59;48.24;102265.59;5029268;28;20668;-58
2022/01/28 12:33:05;;;;;;;3.50;1.97;;;;;;;18.62;48.33;102256.34;5027768;28;20426;-58
2022/01/28 12:35:30;;;;;;;3.10;1.87;;;;;;;18.57;48.28;102245.06;5032893;28;20190;-58
2022/01/28 12:38:01;;;;;;;2.93;2.20;;;;;;;18.68;48.25;102245.59;5032991;28;20303;-58
2022/01/28 12:40:29;;;;;;;3.17;2.07;;;;;;;18.68;48.14;102237.84;5031593;28;20191;-58
2022/01/28 12:42:55;;;;;;;3.50;1.77;;;;;;;18.62;48.21;102239.16;5031985;28;20391;-58
2022/01/28 12:45:20;;;;;;;3.10;2.00;;;;;;;18.59;48.16;102237.00;5032287;28;20444;-59
2022/01/28 12:47:46;;;;;;;3.00;1.87;;;;;;;18.67;48.08;102241.03;5032300;28;20180;-58
2022/01/28 12:50:12;;;;;;;2.60;1.90;;;;;;;18.59;48.13;102237.00;5032361;28;20212;-57
2022/01/28 12:52:37;;;;;;;2.43;1.67;;;;;;;18.60;47.70;102238.69;5031465;28;20211;-58
2022/01/28 12:55:03;;;;;;;3.10;1.97;;;;;;;18.61;48.19;102239.53;5032676;28;20434;-58
2022/01/28 12:57:29;;;;;;;3.30;2.20;;;;;;;18.62;48.10;102241.22;5033085;28;20172;-58
2022/01/28 12:59:54;;;;;;;2.60;1.73;;;;;;;18.62;48.09;102233.44;5031825;28;20781;-58
2022/01/28 13:02:20;;;;;;;2.87;1.67;;;;;;;18.55;48.45;102235.97;5032170;28;20228;-58